createdAt,value
2019-05-23T00:00:20.772Z,0.00
2019-05-23T00:01:20.755Z,0.00
2019-05-23T00:02:20.751Z,0.00
2019-05-23T00:03:20.736Z,0.00
2019-05-23T00:04:20.724Z,0.00
2019-05-23T00:05:20.753Z,0.00
2019-05-23T00:06:20.737Z,0.00
2019-05-23T00:07:20.692Z,0.00
2019-05-23T00:08:20.685Z,0.00
2019-05-23T00:09:20.670Z,0.00
2019-05-23T00:10:20.679Z,0.00
2019-05-23T00:11:20.648Z,0.00
2019-05-23T00:12:20.638Z,0.00
2019-05-23T00:13:20.627Z,0.00
2019-05-23T00:14:20.615Z,0.00
2019-05-23T00:15:20.606Z,0.00
2019-05-23T00:16:20.594Z,0.00
2019-05-23T00:17:20.582Z,0.00
2019-05-23T00:18:21.260Z,0.00
2019-05-23T00:19:20.561Z,0.00
2019-05-23T00:20:20.556Z,0.00
2019-05-23T00:21:20.539Z,0.00
2019-05-23T00:22:20.530Z,0.00
2019-05-23T00:23:20.519Z,0.00
2019-05-23T00:24:20.509Z,0.00
2019-05-23T00:25:20.496Z,0.00
2019-05-23T00:26:20.484Z,0.00
2019-05-23T00:27:20.477Z,0.00
2019-05-23T00:28:20.467Z,0.00
2019-05-23T00:29:20.451Z,0.00
2019-05-23T00:30:20.440Z,0.00
2019-05-23T00:31:20.430Z,0.00
2019-05-23T00:32:20.419Z,0.00
2019-05-23T00:33:20.408Z,0.00
2019-05-23T00:34:20.397Z,0.00
2019-05-23T00:35:20.386Z,0.00
2019-05-23T00:36:20.376Z,0.00
2019-05-23T00:37:20.367Z,0.00
2019-05-23T00:38:20.354Z,0.00
2019-05-23T00:39:20.347Z,0.00
2019-05-23T00:40:20.332Z,0.00
2019-05-23T00:41:20.373Z,0.00
2019-05-23T00:42:20.312Z,0.00
2019-05-23T00:43:20.300Z,0.00
2019-05-23T00:44:20.291Z,0.00
2019-05-23T00:45:20.278Z,0.00
2019-05-23T00:46:20.266Z,0.00
2019-05-23T00:47:20.258Z,0.00
2019-05-23T00:48:20.244Z,0.00
2019-05-23T00:49:20.234Z,0.00
2019-05-23T00:50:20.224Z,0.00
2019-05-23T00:51:20.211Z,0.00
2019-05-23T00:52:20.200Z,0.00
2019-05-23T00:53:20.187Z,0.00
2019-05-23T00:54:20.184Z,0.00
2019-05-23T00:55:20.166Z,0.00
2019-05-23T00:56:20.155Z,0.00
2019-05-23T00:57:20.144Z,0.00
2019-05-23T00:58:20.133Z,0.00
2019-05-23T00:59:26.920Z,0.00
2019-05-23T01:00:20.115Z,0.00
2019-05-23T01:01:20.142Z,0.00
2019-05-23T01:02:20.088Z,0.00
2019-05-23T01:03:20.079Z,0.00
2019-05-23T01:04:20.065Z,0.00
2019-05-23T01:05:20.054Z,0.00
2019-05-23T01:06:20.044Z,0.00
2019-05-23T01:07:20.038Z,0.00
2019-05-23T01:08:20.021Z,0.00
2019-05-23T01:09:20.010Z,0.00
2019-05-23T01:10:19.999Z,0.00
2019-05-23T01:11:19.987Z,0.00
2019-05-23T01:12:19.983Z,0.00
2019-05-23T01:13:19.964Z,0.00
2019-05-23T01:14:19.960Z,0.00
2019-05-23T01:15:19.943Z,0.00
2019-05-23T01:16:19.932Z,0.00
2019-05-23T01:17:19.924Z,0.00
2019-05-23T01:18:19.909Z,0.00
2019-05-23T01:19:19.898Z,0.00
2019-05-23T01:20:19.887Z,0.00
2019-05-23T01:21:19.876Z,0.00
2019-05-23T01:22:19.965Z,0.00
2019-05-23T01:23:19.858Z,0.00
2019-05-23T01:24:19.847Z,0.00
2019-05-23T01:25:19.831Z,0.00
2019-05-23T01:26:19.820Z,0.00
2019-05-23T01:27:19.809Z,0.00
2019-05-23T01:28:19.798Z,0.00
2019-05-23T01:29:19.787Z,0.00
2019-05-23T01:30:19.775Z,0.00
2019-05-23T01:31:19.816Z,0.00
2019-05-23T01:32:19.755Z,0.00
2019-05-23T01:33:19.741Z,0.00
2019-05-23T01:34:19.734Z,0.00
2019-05-23T01:35:19.719Z,0.00
2019-05-23T01:36:19.709Z,0.00
2019-05-23T01:37:19.697Z,0.00
2019-05-23T01:38:19.685Z,0.00
2019-05-23T01:39:19.674Z,0.00
2019-05-23T01:40:19.664Z,0.00
2019-05-23T01:41:19.660Z,0.00
2019-05-23T01:42:19.642Z,0.00
2019-05-23T01:43:19.629Z,0.00
2019-05-23T01:44:19.619Z,0.00
2019-05-23T01:45:19.606Z,0.00
2019-05-23T01:46:19.595Z,0.00
2019-05-23T01:47:19.584Z,0.00
2019-05-23T01:48:19.573Z,0.00
2019-05-23T01:49:19.562Z,0.00
2019-05-23T01:50:19.551Z,0.00
2019-05-23T01:51:19.538Z,0.00
2019-05-23T01:52:19.529Z,0.00
2019-05-23T01:53:19.523Z,0.00
2019-05-23T01:54:19.522Z,0.00
2019-05-23T01:55:19.493Z,0.00
2019-05-23T01:56:19.484Z,0.00
2019-05-23T01:57:19.472Z,0.00
2019-05-23T01:58:19.465Z,0.00
2019-05-23T01:59:19.449Z,0.00
2019-05-23T02:00:19.446Z,0.00
2019-05-23T02:01:19.432Z,0.00
2019-05-23T02:02:19.417Z,0.00
2019-05-23T02:03:19.408Z,0.00
2019-05-23T02:04:19.394Z,0.00
2019-05-23T02:05:19.382Z,0.00
2019-05-23T02:06:19.372Z,0.00
2019-05-23T02:07:19.357Z,0.00
2019-05-23T02:08:19.345Z,0.00
2019-05-23T02:09:19.346Z,0.00
2019-05-23T02:10:19.325Z,0.00
2019-05-23T02:11:19.315Z,0.00
2019-05-23T02:12:19.300Z,0.00
2019-05-23T02:13:19.287Z,0.00
2019-05-23T02:14:19.276Z,0.00
2019-05-23T02:15:19.264Z,0.00
2019-05-23T02:16:19.261Z,0.00
2019-05-23T02:17:19.241Z,0.00
2019-05-23T02:18:19.229Z,0.00
2019-05-23T02:19:19.218Z,0.00
2019-05-23T02:20:19.211Z,0.00
2019-05-23T02:21:19.195Z,0.00
2019-05-23T02:22:19.192Z,0.00
2019-05-23T02:23:19.173Z,0.00
2019-05-23T02:24:19.166Z,0.00
2019-05-23T02:25:19.152Z,0.00
2019-05-23T02:26:19.136Z,0.00
2019-05-23T02:27:19.125Z,0.00
2019-05-23T02:28:19.113Z,0.00
2019-05-23T02:29:19.103Z,0.00
2019-05-23T02:30:33.195Z,0.00
2019-05-23T02:31:19.078Z,0.00
2019-05-23T02:32:19.069Z,0.00
2019-05-23T02:33:19.054Z,0.00
2019-05-23T02:34:19.047Z,0.00
2019-05-23T02:35:19.032Z,0.00
2019-05-23T02:36:19.021Z,0.00
2019-05-23T02:37:19.008Z,0.00
2019-05-23T02:38:19.002Z,0.00
2019-05-23T02:39:18.996Z,0.00
2019-05-23T02:40:18.973Z,0.00
2019-05-23T02:41:18.959Z,0.00
2019-05-23T02:42:18.950Z,0.00
2019-05-23T02:43:18.940Z,0.00
2019-05-23T02:44:18.927Z,0.00
2019-05-23T02:45:18.919Z,0.00
2019-05-23T02:46:18.903Z,0.00
2019-05-23T02:47:18.890Z,0.00
2019-05-23T02:48:18.901Z,0.00
2019-05-23T02:49:18.865Z,0.00
2019-05-23T02:50:18.853Z,0.00
2019-05-23T02:51:18.845Z,0.00
2019-05-23T02:52:18.833Z,0.00
2019-05-23T02:53:18.823Z,0.00
2019-05-23T02:54:18.807Z,0.00
2019-05-23T02:55:18.794Z,0.00
2019-05-23T02:56:18.782Z,0.00
2019-05-23T02:57:18.801Z,0.00
2019-05-23T02:58:18.760Z,0.00
2019-05-23T02:59:18.748Z,0.00
2019-05-23T03:00:18.737Z,4.00
2019-05-23T03:01:18.723Z,4.00
2019-05-23T03:02:18.714Z,4.00
2019-05-23T03:03:18.699Z,0.00
2019-05-23T03:04:18.690Z,4.00
2019-05-23T03:05:18.675Z,4.00
2019-05-23T03:06:18.667Z,4.00
2019-05-23T03:07:18.652Z,4.00
2019-05-23T03:08:18.642Z,8.00
2019-05-23T03:09:18.627Z,8.00
2019-05-23T03:10:18.619Z,4.00
2019-05-23T03:11:18.612Z,8.00
2019-05-23T03:12:18.601Z,8.00
2019-05-23T03:13:18.579Z,8.00
2019-05-23T03:14:18.580Z,12.00
2019-05-23T03:15:18.557Z,16.00
2019-05-23T03:16:18.564Z,16.00
2019-05-23T03:17:18.536Z,20.00
2019-05-23T03:18:18.520Z,20.00
2019-05-23T03:19:18.508Z,20.00
2019-05-23T03:20:18.497Z,24.00
2019-05-23T03:21:18.487Z,28.00
2019-05-23T03:22:18.472Z,32.00
2019-05-23T03:23:18.474Z,36.00
2019-05-23T03:24:18.449Z,40.00
2019-05-23T03:25:18.436Z,44.00
2019-05-23T03:26:18.428Z,52.00
2019-05-23T03:27:18.415Z,56.00
2019-05-23T03:28:18.402Z,64.00
2019-05-23T03:29:18.389Z,68.00
2019-05-23T03:30:18.391Z,76.00
2019-05-23T03:31:30.685Z,84.00
2019-05-23T03:32:18.359Z,92.00
2019-05-23T03:33:18.452Z,96.00
2019-05-23T03:34:18.331Z,104.00
2019-05-23T03:35:18.321Z,116.00
2019-05-23T03:36:18.305Z,128.00
2019-05-23T03:37:18.294Z,140.00
2019-05-23T03:38:18.282Z,152.00
2019-05-23T03:39:18.270Z,164.00
2019-05-23T03:40:18.263Z,180.00
2019-05-23T03:41:18.246Z,192.00
2019-05-23T03:42:18.237Z,208.00
2019-05-23T03:43:18.224Z,228.00
2019-05-23T03:44:18.222Z,244.00
2019-05-23T03:45:18.197Z,264.00
2019-05-23T03:46:18.185Z,280.00
2019-05-23T03:47:18.174Z,304.00
2019-05-23T03:48:18.164Z,324.00
2019-05-23T03:49:18.149Z,352.00
2019-05-23T03:50:18.137Z,376.00
2019-05-23T03:51:18.126Z,408.00
2019-05-23T03:52:18.113Z,440.00
2019-05-23T03:53:18.102Z,464.00
2019-05-23T03:54:18.108Z,484.00
2019-05-23T03:55:18.077Z,512.00
2019-05-23T03:56:18.070Z,548.00
2019-05-23T03:57:18.054Z,584.00
2019-05-23T03:58:18.043Z,620.00
2019-05-23T03:59:18.031Z,660.00
2019-05-23T04:00:18.019Z,700.00
2019-05-23T04:01:18.010Z,724.00
2019-05-23T04:02:17.994Z,740.00
2019-05-23T04:03:17.983Z,756.00
2019-05-23T04:04:17.974Z,780.00
2019-05-23T04:05:17.959Z,812.00
2019-05-23T04:06:17.947Z,848.00
2019-05-23T04:07:17.936Z,880.00
2019-05-23T04:08:17.924Z,888.00
2019-05-23T04:09:17.922Z,904.00
2019-05-23T04:10:17.900Z,928.00
2019-05-23T04:11:17.888Z,960.00
2019-05-23T04:12:17.879Z,980.00
2019-05-23T04:13:17.868Z,1028.00
2019-05-23T04:14:17.857Z,1088.00
2019-05-23T04:15:17.841Z,1144.00
2019-05-23T04:16:17.836Z,1180.00
2019-05-23T04:17:17.825Z,1184.00
2019-05-23T04:18:17.807Z,1184.00
2019-05-23T04:19:17.810Z,1208.00
2019-05-23T04:20:17.782Z,1240.00
2019-05-23T04:21:17.771Z,1260.00
2019-05-23T04:22:17.770Z,1268.00
2019-05-23T04:23:17.751Z,1276.00
2019-05-23T04:24:17.737Z,1340.00
2019-05-23T04:25:17.724Z,1452.00
2019-05-23T04:26:17.714Z,1528.00
2019-05-23T04:27:17.706Z,1560.00
2019-05-23T04:28:17.690Z,1604.00
2019-05-23T04:29:17.796Z,1684.00
2019-05-23T04:30:17.666Z,1768.00
2019-05-23T04:31:17.655Z,1792.00
2019-05-23T04:32:17.644Z,1796.00
2019-05-23T04:33:17.632Z,1812.00
2019-05-23T04:34:17.620Z,1836.00
2019-05-23T04:35:17.609Z,1872.00
2019-05-23T04:36:17.598Z,1944.00
2019-05-23T04:37:17.598Z,2052.00
2019-05-23T04:38:17.575Z,2156.00
2019-05-23T04:39:17.563Z,2228.00
2019-05-23T04:40:17.552Z,2316.00
2019-05-23T04:41:17.553Z,2412.00
2019-05-23T04:42:17.528Z,2516.00
2019-05-23T04:43:17.523Z,2620.00
2019-05-23T04:44:17.509Z,2720.00
2019-05-23T04:45:17.492Z,2796.00
2019-05-23T04:46:17.482Z,2848.00
2019-05-23T04:47:17.471Z,2932.00
2019-05-23T04:48:17.464Z,3008.00
2019-05-23T04:49:17.448Z,3084.00
2019-05-23T04:50:17.445Z,3140.00
2019-05-23T04:51:17.438Z,3192.00
2019-05-23T04:52:17.414Z,3240.00
2019-05-23T04:53:17.403Z,3288.00
2019-05-23T04:54:17.394Z,3332.00
2019-05-23T04:55:17.380Z,3384.00
2019-05-23T04:56:17.386Z,3444.00
2019-05-23T04:57:17.355Z,3516.00
2019-05-23T04:58:17.348Z,3576.00
2019-05-23T04:59:17.333Z,3636.00
2019-05-23T05:00:17.323Z,3692.00
2019-05-23T05:01:17.311Z,3744.00
2019-05-23T05:02:26.426Z,3768.00
2019-05-23T05:03:18.588Z,3748.00
2019-05-23T05:04:17.282Z,3720.00
2019-05-23T05:05:17.266Z,3700.00
2019-05-23T05:06:17.257Z,3728.00
2019-05-23T05:07:17.246Z,3812.00
2019-05-23T05:08:17.245Z,3892.00
2019-05-23T05:09:17.221Z,3924.00
2019-05-23T05:10:17.219Z,3960.00
2019-05-23T05:11:17.203Z,3988.00
2019-05-23T05:12:17.209Z,3972.00
2019-05-23T05:13:17.179Z,3912.00
2019-05-23T05:14:17.166Z,3832.00
2019-05-23T05:15:17.157Z,3756.00
2019-05-23T05:16:17.146Z,3680.00
2019-05-23T05:17:17.141Z,3620.00
2019-05-23T05:18:17.126Z,3608.00
2019-05-23T05:19:17.113Z,3624.00
2019-05-23T05:20:17.102Z,3648.00
2019-05-23T05:21:17.092Z,3668.00
2019-05-23T05:22:17.081Z,3696.00
2019-05-23T05:23:17.069Z,3724.00
2019-05-23T05:24:17.058Z,3756.00
2019-05-23T05:25:17.048Z,3796.00
2019-05-23T05:26:17.036Z,3864.00
2019-05-23T05:27:17.030Z,3944.00
2019-05-23T05:28:17.017Z,4036.00
2019-05-23T05:29:17.005Z,4140.00
2019-05-23T05:30:17.029Z,4260.00
2019-05-23T05:31:16.982Z,4380.00
2019-05-23T05:32:16.972Z,4492.00
2019-05-23T05:33:16.962Z,4600.00
2019-05-23T05:34:16.951Z,4744.00
2019-05-23T05:35:17.025Z,4912.00
2019-05-23T05:36:16.940Z,5080.00
2019-05-23T05:37:16.929Z,5232.00
2019-05-23T05:38:16.910Z,5364.00
2019-05-23T05:39:16.901Z,5516.00
2019-05-23T05:40:16.902Z,5664.00
2019-05-23T05:41:16.885Z,5828.00
2019-05-23T05:42:16.870Z,6008.00
2019-05-23T05:43:16.859Z,6168.00
2019-05-23T05:44:16.850Z,6268.00
2019-05-23T05:45:16.838Z,6264.00
2019-05-23T05:46:16.829Z,6168.00
2019-05-23T05:47:16.824Z,6048.00
2019-05-23T05:48:16.819Z,5956.00
2019-05-23T05:49:16.799Z,5996.00
2019-05-23T05:50:16.792Z,6052.00
2019-05-23T05:51:16.781Z,6080.00
2019-05-23T05:52:16.779Z,6128.00
2019-05-23T05:53:16.761Z,6208.00
2019-05-23T05:54:16.751Z,6288.00
2019-05-23T05:55:16.741Z,6324.00
2019-05-23T05:56:16.775Z,6332.00
2019-05-23T05:57:16.722Z,6336.00
2019-05-23T05:58:16.714Z,6316.00
2019-05-23T05:59:16.705Z,6376.00
2019-05-23T06:00:16.696Z,6440.00
2019-05-23T06:01:32.721Z,6452.00
2019-05-23T06:02:16.678Z,6460.00
2019-05-23T06:03:16.667Z,6472.00
2019-05-23T06:04:16.660Z,6520.00
2019-05-23T06:05:16.648Z,6620.00
2019-05-23T06:06:16.654Z,6848.00
2019-05-23T06:07:16.639Z,6960.00
2019-05-23T06:08:16.621Z,7060.00
2019-05-23T06:09:16.611Z,7156.00
2019-05-23T06:10:16.603Z,7224.00
2019-05-23T06:11:16.594Z,7264.00
2019-05-23T06:12:16.592Z,7308.00
2019-05-23T06:13:16.578Z,7400.00
2019-05-23T06:14:16.568Z,7508.00
2019-05-23T06:15:16.560Z,7656.00
2019-05-23T06:16:16.553Z,7788.00
2019-05-23T06:17:16.542Z,7912.00
2019-05-23T06:18:16.533Z,7976.00
2019-05-23T06:19:16.524Z,8080.00
2019-05-23T06:20:16.518Z,8216.00
2019-05-23T06:21:16.507Z,8344.00
2019-05-23T06:22:16.498Z,8524.00
2019-05-23T06:23:16.491Z,8680.00
2019-05-23T06:24:16.484Z,8840.00
2019-05-23T06:25:16.473Z,9012.00
2019-05-23T06:26:16.465Z,9396.00
2019-05-23T06:27:16.457Z,9532.00
2019-05-23T06:28:16.450Z,9668.00
2019-05-23T06:29:16.440Z,10152.00
2019-05-23T06:30:16.432Z,10148.00
2019-05-23T06:31:16.426Z,9852.00
2019-05-23T06:32:16.425Z,9980.00
2019-05-23T06:33:23.255Z,10296.00
2019-05-23T06:34:16.401Z,11388.00
2019-05-23T06:35:16.393Z,12636.00
2019-05-23T06:36:16.384Z,11632.00
2019-05-23T06:37:16.391Z,10808.00
2019-05-23T06:38:16.535Z,10644.00
2019-05-23T06:39:16.509Z,10524.00
2019-05-23T06:40:16.353Z,10508.00
2019-05-23T06:41:16.347Z,10592.00
2019-05-23T06:42:16.336Z,10932.00
2019-05-23T06:43:16.329Z,12188.00
2019-05-23T06:44:16.330Z,12144.00
2019-05-23T06:45:16.316Z,20352.00
2019-05-23T06:46:16.310Z,34624.00
2019-05-23T06:47:16.301Z,26784.00
2019-05-23T06:48:16.302Z,18016.00
2019-05-23T06:49:16.285Z,28032.00
2019-05-23T06:50:16.279Z,39232.00
2019-05-23T06:51:16.272Z,46880.00
2019-05-23T06:52:16.266Z,55520.00
2019-05-23T06:53:16.265Z,62976.00
2019-05-23T06:54:16.252Z,60288.00
2019-05-23T06:55:16.299Z,54080.00
2019-05-23T06:56:16.247Z,51520.00
2019-05-23T06:57:16.235Z,47904.00
2019-05-23T06:58:16.249Z,55200.00
2019-05-23T06:59:16.227Z,55616.00
2019-05-23T07:00:16.223Z,57440.00
2019-05-23T07:01:16.213Z,63200.00
2019-05-23T07:02:16.208Z,65600.00
2019-05-23T07:03:16.204Z,60768.00
2019-05-23T07:04:16.200Z,60896.00
2019-05-23T07:05:16.197Z,64320.00
2019-05-23T07:06:16.194Z,63072.00
2019-05-23T07:07:16.191Z,62336.00
2019-05-23T07:08:16.188Z,66208.00
2019-05-23T07:09:16.184Z,65312.00
2019-05-23T07:10:16.184Z,64352.00
2019-05-23T07:11:16.252Z,63584.00
2019-05-23T07:12:16.178Z,61856.00
2019-05-23T07:13:16.175Z,63136.00
2019-05-23T07:14:16.172Z,61696.00
2019-05-23T07:15:16.172Z,58528.00
2019-05-23T07:16:16.175Z,61472.00
2019-05-23T07:17:16.169Z,59744.00
2019-05-23T07:18:16.184Z,58976.00
2019-05-23T07:19:16.188Z,57504.00
2019-05-23T07:20:16.172Z,53376.00
2019-05-23T07:21:16.171Z,51776.00
2019-05-23T07:22:18.960Z,57856.00
2019-05-23T07:23:16.177Z,59072.00
2019-05-23T07:24:16.170Z,62176.00
2019-05-23T07:25:16.171Z,64448.00
2019-05-23T07:26:16.169Z,57760.00
2019-05-23T07:27:16.172Z,56960.00
2019-05-23T07:28:16.171Z,66016.00
2019-05-23T07:29:16.179Z,63968.00
2019-05-23T07:30:16.173Z,65536.00
2019-05-23T07:31:16.174Z,68576.00
2019-05-23T07:32:16.194Z,68384.00
2019-05-23T07:33:16.218Z,72096.00
2019-05-23T07:34:16.195Z,68704.00
2019-05-23T07:35:16.178Z,68480.00
2019-05-23T07:36:16.189Z,69440.00
2019-05-23T07:37:16.180Z,65408.00
2019-05-23T07:38:16.182Z,69600.00
2019-05-23T07:39:16.182Z,69856.00
2019-05-23T07:40:16.192Z,59904.00
2019-05-23T07:41:16.212Z,67392.00
2019-05-23T07:42:16.185Z,65568.00
2019-05-23T07:43:16.187Z,63584.00
2019-05-23T07:44:16.196Z,62176.00
2019-05-23T07:45:16.189Z,57760.00
2019-05-23T07:46:16.192Z,60128.00
2019-05-23T07:47:16.191Z,61696.00
2019-05-23T07:48:16.202Z,58784.00
2019-05-23T07:49:16.201Z,59328.00
2019-05-23T07:50:16.193Z,72800.00
2019-05-23T07:51:16.193Z,77152.00
2019-05-23T07:52:16.210Z,71584.00
2019-05-23T07:53:16.207Z,74016.00
2019-05-23T07:54:16.240Z,76512.00
2019-05-23T07:55:16.197Z,71552.00
2019-05-23T07:56:16.199Z,71424.00
2019-05-23T07:57:16.201Z,76064.00
2019-05-23T07:58:16.208Z,73824.00
2019-05-23T07:59:16.204Z,71936.00
2019-05-23T08:00:16.207Z,75232.00
2019-05-23T08:01:16.209Z,77504.00
2019-05-23T08:02:16.210Z,77760.00
2019-05-23T08:03:16.213Z,76992.00
2019-05-23T08:04:21.942Z,78464.00
2019-05-23T08:05:16.246Z,77472.00
2019-05-23T08:06:16.223Z,77248.00
2019-05-23T08:07:16.226Z,78592.00
2019-05-23T08:08:16.234Z,79328.00
2019-05-23T08:09:16.229Z,82400.00
2019-05-23T08:10:32.655Z,84064.00
2019-05-23T08:11:16.255Z,78176.00
2019-05-23T08:12:16.241Z,82528.00
2019-05-23T08:13:16.242Z,77440.00
2019-05-23T08:14:16.247Z,84640.00
2019-05-23T08:15:16.253Z,89216.00
2019-05-23T08:16:16.270Z,85280.00
2019-05-23T08:17:16.268Z,86496.00
2019-05-23T08:18:16.262Z,91872.00
2019-05-23T08:19:19.342Z,94048.00
2019-05-23T08:20:16.275Z,85792.00
2019-05-23T08:21:16.275Z,96160.00
2019-05-23T08:22:16.280Z,95424.00
2019-05-23T08:23:16.287Z,83968.00
2019-05-23T08:24:16.292Z,86592.00
2019-05-23T08:25:16.338Z,93024.00
2019-05-23T08:26:16.301Z,83488.00
2019-05-23T08:27:16.306Z,87744.00
2019-05-23T08:28:16.308Z,96096.00
2019-05-23T08:29:28.076Z,91840.00
2019-05-23T08:30:16.318Z,87488.00
2019-05-23T08:31:16.323Z,97216.00
2019-05-23T08:32:16.328Z,94592.00
2019-05-23T08:33:16.369Z,89632.00
2019-05-23T08:34:16.335Z,86112.00
2019-05-23T08:35:18.093Z,84704.00
2019-05-23T08:36:16.344Z,85024.00
2019-05-23T08:37:16.348Z,79168.00
2019-05-23T08:38:16.353Z,80832.00
2019-05-23T08:39:16.358Z,87136.00
2019-05-23T08:40:16.362Z,77344.00
2019-05-23T08:41:16.367Z,72576.00
2019-05-23T08:42:16.381Z,70912.00
2019-05-23T08:43:16.377Z,75488.00
2019-05-23T08:44:16.383Z,73184.00
2019-05-23T08:45:16.387Z,70304.00
2019-05-23T08:46:16.410Z,90080.00
2019-05-23T08:47:16.394Z,95680.00
2019-05-23T08:48:16.416Z,94528.00
2019-05-23T08:49:16.408Z,94368.00
2019-05-23T08:50:16.414Z,95872.00
2019-05-23T08:51:16.439Z,90880.00
2019-05-23T08:52:16.420Z,87808.00
2019-05-23T08:53:16.425Z,94944.00
2019-05-23T08:54:16.430Z,99200.00
2019-05-23T08:55:16.622Z,97632.00
2019-05-23T08:56:19.605Z,96000.00
2019-05-23T08:57:16.446Z,17824.00
2019-05-23T08:58:16.622Z,92608.00
2019-05-23T08:59:16.458Z,94528.00
2019-05-23T09:00:16.465Z,80960.00
2019-05-23T09:01:16.496Z,98208.00
2019-05-23T09:02:16.477Z,91040.00
2019-05-23T09:03:16.483Z,84768.00
2019-05-23T09:04:16.487Z,94464.00
2019-05-23T09:05:16.493Z,91904.00
2019-05-23T09:06:16.494Z,83616.00
2019-05-23T09:07:16.544Z,84992.00
2019-05-23T09:08:17.384Z,84896.00
2019-05-23T09:09:29.316Z,84160.00
2019-05-23T09:10:16.521Z,91904.00
2019-05-23T09:11:16.522Z,80800.00
2019-05-23T09:12:16.554Z,79872.00
2019-05-23T09:13:16.539Z,79424.00
2019-05-23T09:14:16.543Z,81024.00
2019-05-23T09:15:16.546Z,84160.00
2019-05-23T09:16:16.550Z,84832.00
2019-05-23T09:17:16.556Z,79904.00
2019-05-23T09:18:16.562Z,85952.00
2019-05-23T09:19:16.571Z,83424.00
2019-05-23T09:20:16.577Z,89760.00
2019-05-23T09:21:16.583Z,91712.00
2019-05-23T09:22:16.587Z,86752.00
2019-05-23T09:23:16.599Z,94976.00
2019-05-23T09:24:16.607Z,95136.00
2019-05-23T09:25:16.609Z,89472.00
2019-05-23T09:26:16.616Z,88352.00
2019-05-23T09:27:16.623Z,90848.00
2019-05-23T09:28:16.633Z,18464.00
2019-05-23T09:29:16.636Z,88544.00
2019-05-23T09:30:16.644Z,63040.00
2019-05-23T09:31:16.654Z,85408.00
2019-05-23T09:32:16.670Z,81344.00
2019-05-23T09:33:16.671Z,84352.00
2019-05-23T09:34:16.671Z,82880.00
2019-05-23T09:35:21.960Z,78688.00
2019-05-23T09:36:16.685Z,84192.00
2019-05-23T09:37:16.698Z,83104.00
2019-05-23T09:38:16.701Z,81728.00
2019-05-23T09:39:16.708Z,23136.00
2019-05-23T09:40:16.715Z,18400.00
2019-05-23T09:41:16.728Z,17344.00
2019-05-23T09:42:16.726Z,17856.00
2019-05-23T09:43:16.730Z,30464.00
2019-05-23T09:44:16.735Z,15232.00
2019-05-23T09:45:16.780Z,14012.00
2019-05-23T09:46:16.743Z,13896.00
2019-05-23T09:47:16.747Z,14384.00
2019-05-23T09:48:16.754Z,18528.00
2019-05-23T09:49:16.754Z,76576.00
2019-05-23T09:50:16.756Z,51168.00
2019-05-23T09:51:16.760Z,78112.00
2019-05-23T09:52:16.842Z,74912.00
2019-05-23T09:53:16.765Z,15668.00
2019-05-23T09:54:16.767Z,12468.00
2019-05-23T09:55:16.786Z,12928.00
2019-05-23T09:56:16.786Z,71424.00
2019-05-23T09:57:16.775Z,71872.00
2019-05-23T09:58:16.790Z,67712.00
2019-05-23T09:59:16.790Z,71424.00
2019-05-23T10:00:16.783Z,75968.00
2019-05-23T10:01:16.783Z,75552.00
2019-05-23T10:02:16.809Z,79136.00
2019-05-23T10:03:16.790Z,76832.00
2019-05-23T10:04:16.797Z,72512.00
2019-05-23T10:05:16.802Z,71840.00
2019-05-23T10:06:16.804Z,71872.00
2019-05-23T10:07:16.813Z,68608.00
2019-05-23T10:08:16.814Z,66336.00
2019-05-23T10:09:16.823Z,64384.00
2019-05-23T10:10:16.829Z,60128.00
2019-05-23T10:11:16.843Z,59840.00
2019-05-23T10:12:16.840Z,61248.00
2019-05-23T10:13:16.848Z,59168.00
2019-05-23T10:14:16.853Z,62400.00
2019-05-23T10:15:16.863Z,58016.00
2019-05-23T10:16:16.868Z,60736.00
2019-05-23T10:17:16.875Z,61152.00
2019-05-23T10:18:16.882Z,65440.00
2019-05-23T10:19:16.889Z,62816.00
2019-05-23T10:20:16.898Z,61024.00
2019-05-23T10:21:16.904Z,57728.00
2019-05-23T10:22:16.913Z,57248.00
2019-05-23T10:23:16.920Z,51424.00
2019-05-23T10:24:16.928Z,51232.00
2019-05-23T10:25:16.933Z,47264.00
2019-05-23T10:26:16.942Z,42528.00
2019-05-23T10:27:16.950Z,31008.00
2019-05-23T10:28:16.957Z,35776.00
2019-05-23T10:29:16.962Z,27168.00
2019-05-23T10:30:16.971Z,52768.00
2019-05-23T10:31:16.977Z,54144.00
2019-05-23T10:32:16.983Z,52864.00
2019-05-23T10:33:16.994Z,56448.00
2019-05-23T10:34:16.994Z,58624.00
2019-05-23T10:35:17.002Z,57472.00
2019-05-23T10:36:17.008Z,51616.00
2019-05-23T10:37:17.014Z,53728.00
2019-05-23T10:38:17.021Z,48608.00
2019-05-23T10:39:17.027Z,50624.00
2019-05-23T10:40:17.033Z,49152.00
2019-05-23T10:41:17.039Z,47776.00
2019-05-23T10:42:17.050Z,31328.00
2019-05-23T10:43:17.052Z,49728.00
2019-05-23T10:44:17.059Z,48896.00
2019-05-23T10:45:17.065Z,41824.00
2019-05-23T10:46:17.075Z,44320.00
2019-05-23T10:47:17.079Z,48160.00
2019-05-23T10:48:17.092Z,47296.00
2019-05-23T10:49:17.091Z,39936.00
2019-05-23T10:50:17.099Z,39552.00
2019-05-23T10:51:17.113Z,44512.00
2019-05-23T10:52:17.112Z,50880.00
2019-05-23T10:53:17.118Z,47744.00
2019-05-23T10:54:17.125Z,40288.00
2019-05-23T10:55:17.131Z,41504.00
2019-05-23T10:56:20.558Z,43488.00
2019-05-23T10:57:17.145Z,36640.00
2019-05-23T10:58:17.250Z,41920.00
2019-05-23T10:59:17.161Z,39680.00
2019-05-23T11:00:17.166Z,47072.00
2019-05-23T11:01:17.179Z,47456.00
2019-05-23T11:02:17.183Z,56224.00
2019-05-23T11:03:17.488Z,54592.00
2019-05-23T11:04:17.193Z,48224.00
2019-05-23T11:05:17.197Z,47040.00
2019-05-23T11:06:17.330Z,45824.00
2019-05-23T11:07:17.215Z,41376.00
2019-05-23T11:08:17.225Z,43424.00
2019-05-23T11:09:17.244Z,43584.00
2019-05-23T11:10:17.233Z,41408.00
2019-05-23T11:11:17.241Z,41952.00
2019-05-23T11:12:17.248Z,44800.00
2019-05-23T11:13:17.255Z,42208.00
2019-05-23T11:14:17.261Z,39968.00
2019-05-23T11:15:17.280Z,42816.00
2019-05-23T11:16:17.275Z,41152.00
2019-05-23T11:17:17.280Z,41792.00
2019-05-23T11:18:17.287Z,44576.00
2019-05-23T11:19:17.293Z,46016.00
2019-05-23T11:20:17.300Z,49440.00
2019-05-23T11:21:17.315Z,49216.00
2019-05-23T11:22:17.351Z,45280.00
2019-05-23T11:23:17.318Z,47264.00
2019-05-23T11:24:17.330Z,47520.00
2019-05-23T11:25:17.330Z,47648.00
2019-05-23T11:26:17.341Z,46720.00
2019-05-23T11:27:17.348Z,45792.00
2019-05-23T11:28:17.354Z,44896.00
2019-05-23T11:29:17.361Z,32480.00
2019-05-23T11:30:17.363Z,20544.00
2019-05-23T11:31:17.409Z,39808.00
2019-05-23T11:32:20.047Z,42624.00
2019-05-23T11:33:17.383Z,44192.00
2019-05-23T11:34:17.388Z,42368.00
2019-05-23T11:35:17.395Z,43744.00
2019-05-23T11:36:33.866Z,46368.00
2019-05-23T11:37:17.407Z,47552.00
2019-05-23T11:38:17.411Z,43808.00
2019-05-23T11:39:17.417Z,42496.00
2019-05-23T11:40:17.423Z,42304.00
2019-05-23T11:41:17.428Z,41952.00
2019-05-23T11:42:17.434Z,45696.00
2019-05-23T11:43:17.441Z,47296.00
2019-05-23T11:44:17.447Z,46784.00
2019-05-23T11:45:17.452Z,45120.00
2019-05-23T11:46:17.459Z,43040.00
2019-05-23T11:47:17.503Z,42848.00
2019-05-23T11:48:17.487Z,40256.00
2019-05-23T11:49:17.476Z,43424.00
2019-05-23T11:50:17.483Z,52032.00
2019-05-23T11:51:17.492Z,50848.00
2019-05-23T11:52:17.507Z,51456.00
2019-05-23T11:53:17.501Z,55040.00
2019-05-23T11:54:17.510Z,57280.00
2019-05-23T11:55:17.535Z,56896.00
2019-05-23T11:56:17.522Z,54400.00
2019-05-23T11:57:17.528Z,53216.00
2019-05-23T11:58:17.551Z,53472.00
2019-05-23T11:59:17.543Z,55424.00
2019-05-23T12:00:17.551Z,55904.00
2019-05-23T12:01:20.782Z,55360.00
2019-05-23T12:02:17.566Z,55136.00
2019-05-23T12:03:17.579Z,53088.00
2019-05-23T12:04:17.599Z,51776.00
2019-05-23T12:05:17.590Z,50720.00
2019-05-23T12:06:17.601Z,47264.00
2019-05-23T12:07:17.626Z,47648.00
2019-05-23T12:08:17.622Z,48736.00
2019-05-23T12:09:17.623Z,51744.00
2019-05-23T12:10:17.633Z,49152.00
2019-05-23T12:11:17.653Z,40288.00
2019-05-23T12:12:17.649Z,38784.00
2019-05-23T12:13:17.668Z,36800.00
2019-05-23T12:14:17.665Z,41472.00
2019-05-23T12:15:17.673Z,42688.00